createdAt,value
2018-08-17T00:02:25.868Z,43.80
2018-08-17T00:04:53.360Z,44.00
2018-08-17T00:07:20.852Z,43.90
2018-08-17T00:09:48.328Z,44.00
2018-08-17T00:12:15.954Z,44.00
2018-08-17T00:14:43.431Z,44.10
2018-08-17T00:17:10.920Z,44.20
2018-08-17T00:19:38.318Z,44.30
2018-08-17T00:22:05.890Z,44.40
2018-08-17T00:24:33.322Z,44.50
2018-08-17T00:27:00.755Z,45.40
2018-08-17T00:29:28.273Z,44.80
2018-08-17T00:31:55.748Z,44.80
2018-08-17T00:34:23.177Z,44.80
2018-08-17T00:36:50.752Z,44.90
2018-08-17T00:39:18.222Z,44.90
2018-08-17T00:41:45.686Z,45.10
2018-08-17T00:44:13.148Z,45.20
2018-08-17T00:46:40.618Z,45.30
2018-08-17T00:49:08.151Z,45.30
2018-08-17T00:51:35.670Z,45.40
2018-08-17T00:54:03.184Z,45.70
2018-08-17T00:56:30.626Z,45.60
2018-08-17T00:58:58.117Z,45.80
2018-08-17T01:01:25.636Z,45.80
2018-08-17T01:03:53.109Z,46.10
2018-08-17T01:06:20.769Z,46.30
2018-08-17T01:08:48.321Z,46.20
2018-08-17T01:11:15.814Z,46.30
2018-08-17T01:13:43.294Z,46.40
2018-08-17T01:16:10.873Z,46.60
2018-08-17T01:18:38.361Z,46.50
2018-08-17T01:21:05.817Z,46.50
2018-08-17T01:23:33.234Z,46.70
2018-08-17T01:26:00.679Z,46.70
2018-08-17T01:28:28.115Z,46.70
2018-08-17T01:30:55.581Z,46.80
2018-08-17T01:33:22.997Z,46.80
2018-08-17T01:35:50.435Z,46.80
2018-08-17T01:38:17.902Z,46.80
2018-08-17T01:40:45.363Z,46.80
2018-08-17T01:43:12.861Z,46.80
2018-08-17T01:45:40.323Z,47.40
2018-08-17T01:48:07.797Z,46.90
2018-08-17T01:50:35.297Z,46.90
2018-08-17T01:53:02.783Z,46.80
2018-08-17T01:55:30.233Z,46.90
2018-08-17T01:57:57.683Z,46.90
2018-08-17T02:00:25.893Z,47.00
2018-08-17T02:02:53.369Z,47.00
2018-08-17T02:05:20.832Z,47.20
2018-08-17T02:07:48.375Z,47.30
2018-08-17T02:10:15.838Z,47.60
2018-08-17T02:12:43.333Z,47.50
2018-08-17T02:15:10.788Z,47.70
2018-08-17T02:17:38.293Z,47.80
2018-08-17T02:20:05.806Z,47.70
2018-08-17T02:22:33.249Z,47.90
2018-08-17T02:25:00.728Z,47.90
2018-08-17T02:27:28.238Z,47.90
2018-08-17T02:29:55.748Z,47.50
2018-08-17T02:32:23.208Z,47.90
2018-08-17T02:34:50.659Z,48.10
2018-08-17T02:37:18.214Z,48.30
2018-08-17T02:39:45.664Z,48.50
2018-08-17T02:42:13.130Z,48.30
2018-08-17T02:44:40.590Z,48.40
2018-08-17T02:47:08.056Z,49.30
2018-08-17T02:49:35.488Z,48.50
2018-08-17T02:52:03.031Z,48.40
2018-08-17T02:54:30.534Z,48.50
2018-08-17T02:56:57.988Z,48.50
2018-08-17T02:59:25.610Z,48.50
2018-08-17T03:01:52.937Z,48.50
2018-08-17T03:04:20.467Z,48.50
2018-08-17T03:06:47.977Z,48.50
2018-08-17T03:09:15.481Z,48.50
2018-08-17T03:11:42.944Z,48.60
2018-08-17T03:14:10.396Z,48.60
2018-08-17T03:16:37.856Z,48.70
2018-08-17T03:19:05.386Z,48.80
2018-08-17T03:21:32.946Z,48.80
2018-08-17T03:24:00.508Z,48.90
2018-08-17T03:26:27.983Z,48.80
2018-08-17T03:28:55.442Z,48.90
2018-08-17T03:31:22.920Z,48.90
2018-08-17T03:33:50.361Z,49.10
2018-08-17T03:36:17.837Z,49.20
2018-08-17T03:38:45.266Z,49.20
2018-08-17T03:41:12.746Z,49.20
2018-08-17T03:43:40.167Z,49.30
2018-08-17T03:46:07.674Z,49.50
2018-08-17T03:48:35.137Z,49.60
2018-08-17T03:51:02.581Z,49.60
2018-08-17T03:53:30.137Z,49.60
2018-08-17T03:55:57.641Z,49.70
2018-08-17T03:58:25.283Z,49.70
2018-08-17T04:00:52.907Z,49.90
2018-08-17T04:03:20.361Z,49.80
2018-08-17T04:05:47.795Z,49.90
2018-08-17T04:08:15.297Z,50.00
2018-08-17T04:10:42.756Z,50.10
2018-08-17T04:13:10.349Z,50.00
2018-08-17T04:15:37.923Z,50.10
2018-08-17T04:18:06.136Z,50.00
2018-08-17T04:20:33.617Z,50.00
2018-08-17T04:23:01.062Z,50.10
2018-08-17T04:25:28.533Z,50.10
2018-08-17T04:27:55.984Z,50.20
2018-08-17T04:30:23.452Z,50.20
2018-08-17T04:32:50.841Z,50.20
2018-08-17T04:35:18.358Z,50.30
2018-08-17T04:37:45.847Z,50.20
2018-08-17T04:40:13.261Z,50.30
2018-08-17T04:42:40.681Z,50.30
2018-08-17T04:45:08.886Z,50.40
2018-08-17T04:47:36.461Z,50.50
2018-08-17T04:50:05.007Z,50.60
2018-08-17T04:52:32.508Z,50.60
2018-08-17T04:54:59.950Z,50.70
2018-08-17T04:57:27.407Z,50.80
2018-08-17T04:59:54.875Z,50.90
2018-08-17T05:02:22.348Z,51.10
2018-08-17T05:04:49.805Z,51.10
2018-08-17T05:07:17.323Z,51.30
2018-08-17T05:09:44.743Z,51.40
2018-08-17T05:12:12.250Z,51.50
2018-08-17T05:14:39.726Z,51.70
2018-08-17T05:17:07.245Z,52.70
2018-08-17T05:19:34.741Z,52.00
2018-08-17T05:22:02.230Z,52.00
2018-08-17T05:24:29.688Z,52.10
2018-08-17T05:26:57.139Z,52.20
2018-08-17T05:29:24.618Z,52.20
2018-08-17T05:31:52.133Z,52.30
2018-08-17T05:34:19.593Z,52.40
2018-08-17T05:36:47.075Z,52.40
2018-08-17T05:39:14.633Z,52.60
2018-08-17T05:41:42.057Z,52.50
2018-08-17T05:44:09.507Z,52.60
2018-08-17T05:46:36.991Z,52.60
2018-08-17T05:49:04.670Z,52.80
2018-08-17T05:51:32.135Z,52.80
2018-08-17T05:53:59.596Z,52.70
2018-08-17T05:56:27.208Z,52.80
2018-08-17T05:58:54.602Z,52.90
2018-08-17T06:01:22.177Z,53.00
2018-08-17T06:03:49.695Z,53.00
2018-08-17T06:06:17.159Z,53.00
2018-08-17T06:08:44.725Z,52.90
2018-08-17T06:11:12.260Z,53.00
2018-08-17T06:13:39.681Z,52.80
2018-08-17T06:16:07.949Z,53.60
2018-08-17T06:18:35.519Z,52.70
2018-08-17T06:21:03.040Z,53.00
2018-08-17T06:23:30.507Z,53.00
2018-08-17T06:25:58.030Z,52.90
2018-08-17T06:28:25.576Z,52.80
2018-08-17T06:30:53.095Z,52.80
2018-08-17T06:33:20.899Z,52.70
2018-08-17T06:35:48.470Z,52.70
2018-08-17T06:38:15.974Z,52.70
2018-08-17T06:40:43.472Z,52.80
2018-08-17T06:43:10.962Z,52.20
2018-08-17T06:46:55.223Z,52.20
2018-08-17T06:49:22.671Z,52.40
2018-08-17T06:51:50.217Z,52.30
2018-08-17T06:54:17.703Z,52.10
2018-08-17T06:56:45.197Z,52.10
2018-08-17T06:59:12.665Z,52.20
2018-08-17T07:01:40.167Z,51.90
2018-08-17T07:04:07.702Z,52.10
2018-08-17T07:06:35.158Z,52.60
2018-08-17T07:09:02.939Z,53.10
2018-08-17T07:11:30.338Z,52.70
2018-08-17T07:13:57.797Z,52.80
2018-08-17T07:16:25.263Z,53.60
2018-08-17T07:18:52.682Z,52.90
2018-08-17T07:21:20.171Z,52.30
2018-08-17T07:23:47.635Z,52.60
2018-08-17T07:26:15.050Z,52.00
2018-08-17T07:28:42.510Z,52.20
2018-08-17T07:31:10.001Z,52.00
2018-08-17T07:33:37.561Z,51.40
2018-08-17T07:36:05.056Z,51.30
2018-08-17T07:38:32.476Z,51.60
2018-08-17T07:40:59.951Z,51.50
2018-08-17T07:43:27.436Z,51.00
2018-08-17T07:45:54.904Z,51.00
2018-08-17T07:48:22.472Z,51.10
2018-08-17T07:50:49.837Z,50.70
2018-08-17T07:53:17.284Z,50.50
2018-08-17T07:55:44.753Z,50.50
2018-08-17T07:58:12.205Z,50.20
2018-08-17T08:00:39.741Z,50.20
2018-08-17T08:03:07.193Z,49.80
2018-08-17T08:05:34.629Z,49.50
2018-08-17T08:08:02.129Z,49.60
2018-08-17T08:10:29.605Z,48.90
2018-08-17T08:12:57.060Z,49.40
2018-08-17T08:15:24.603Z,48.90
2018-08-17T08:17:52.099Z,48.60
2018-08-17T08:20:32.889Z,48.40
2018-08-17T08:23:11.956Z,47.80
2018-08-17T08:25:40.145Z,47.80
2018-08-17T08:28:07.702Z,47.10
2018-08-17T08:30:35.171Z,47.80
2018-08-17T08:33:02.816Z,47.10
2018-08-17T08:35:30.247Z,46.90
2018-08-17T08:37:58.033Z,46.80
2018-08-17T08:40:25.533Z,46.70
2018-08-17T08:42:53.129Z,46.20
2018-08-17T08:45:20.703Z,46.00
2018-08-17T08:47:48.221Z,45.90
2018-08-17T08:50:15.858Z,45.80
2018-08-17T08:52:43.574Z,45.80
2018-08-17T08:55:11.042Z,45.40
2018-08-17T08:57:38.826Z,44.90
2018-08-17T09:00:07.292Z,45.10
2018-08-17T09:02:34.872Z,45.20
2018-08-17T09:05:02.546Z,44.20
2018-08-17T09:07:30.064Z,44.40
2018-08-17T09:09:57.574Z,43.80
2018-08-17T09:12:25.022Z,44.10
2018-08-17T09:14:52.503Z,43.60
2018-08-17T09:17:19.978Z,43.60
2018-08-17T09:19:47.463Z,42.90
2018-08-17T09:22:14.944Z,42.00
2018-08-17T09:24:42.436Z,41.60
2018-08-17T09:27:09.911Z,41.10
2018-08-17T09:29:37.946Z,40.70
2018-08-17T09:32:05.440Z,40.30
2018-08-17T09:34:32.930Z,39.90
2018-08-17T09:37:00.417Z,40.20
2018-08-17T09:39:27.866Z,39.40
2018-08-17T09:41:55.646Z,38.90
2018-08-17T09:44:23.261Z,38.30
2018-08-17T09:46:50.822Z,37.80
2018-08-17T09:49:18.386Z,37.10
2018-08-17T09:51:46.462Z,36.60
2018-08-17T09:54:13.889Z,37.20
2018-08-17T09:56:41.369Z,36.60
2018-08-17T09:59:08.836Z,36.80
2018-08-17T10:01:41.924Z,35.70
2018-08-17T10:04:14.902Z,35.10
2018-08-17T10:06:47.926Z,35.50
2018-08-17T10:09:21.092Z,34.20
2018-08-17T10:11:50.144Z,34.40
2018-08-17T10:14:17.906Z,33.60
2018-08-17T10:16:45.576Z,34.10
2018-08-17T10:19:13.098Z,32.60
2018-08-17T10:21:55.677Z,32.20
2018-08-17T10:24:23.379Z,31.50
2018-08-17T10:26:51.970Z,30.70
2018-08-17T10:29:28.282Z,30.20
2018-08-17T10:31:55.751Z,30.10
2018-08-17T10:34:23.203Z,29.60
2018-08-17T10:36:50.699Z,28.90
2018-08-17T10:39:18.939Z,28.60
2018-08-17T10:41:46.523Z,28.60
2018-08-17T10:44:14.039Z,28.10
2018-08-17T10:46:42.067Z,27.10
2018-08-17T10:49:10.208Z,27.00
2018-08-17T10:51:37.915Z,26.10
2018-08-17T10:54:05.537Z,26.10
2018-08-17T10:56:33.433Z,26.50
2018-08-17T10:59:00.915Z,25.90
2018-08-17T11:01:28.507Z,26.30
2018-08-17T11:03:56.042Z,25.90
2018-08-17T11:06:23.528Z,25.80
2018-08-17T11:08:51.066Z,25.60
2018-08-17T11:11:21.062Z,26.10
2018-08-17T11:13:49.456Z,26.30
2018-08-17T11:16:16.994Z,26.80
2018-08-17T11:18:44.599Z,26.90
2018-08-17T11:21:12.191Z,26.90
2018-08-17T11:23:39.611Z,26.50
2018-08-17T11:26:07.210Z,27.00
2018-08-17T11:28:34.703Z,27.30
2018-08-17T11:31:02.321Z,27.50
2018-08-17T11:33:30.236Z,27.30
2018-08-17T11:35:57.851Z,27.10
2018-08-17T11:38:26.953Z,27.10
2018-08-17T11:40:54.663Z,26.50
2018-08-17T11:43:22.108Z,26.70
2018-08-17T11:45:49.590Z,26.70
2018-08-17T11:48:24.197Z,26.80
2018-08-17T11:50:51.996Z,26.40
2018-08-17T11:53:19.475Z,25.70
2018-08-17T11:55:47.008Z,26.90
2018-08-17T11:58:14.523Z,27.10
2018-08-17T12:00:42.055Z,27.10
2018-08-17T12:03:09.647Z,26.40
2018-08-17T12:05:37.237Z,27.00
2018-08-17T12:08:04.981Z,26.70
2018-08-17T12:10:32.417Z,26.90
2018-08-17T12:13:05.448Z,26.70
2018-08-17T12:15:59.563Z,27.00
2018-08-17T12:18:27.130Z,27.30
2018-08-17T12:20:55.220Z,26.50
2018-08-17T12:23:23.060Z,27.70
2018-08-17T12:25:54.419Z,27.60
2018-08-17T12:28:22.116Z,28.00
2018-08-17T12:30:49.786Z,27.90
2018-08-17T12:33:17.224Z,27.50
2018-08-17T12:35:44.690Z,27.40
2018-08-17T12:38:13.930Z,27.70
2018-08-17T12:40:46.008Z,27.50
2018-08-17T12:43:15.190Z,27.30
2018-08-17T12:45:42.666Z,27.00
2018-08-17T12:48:10.692Z,27.00
2018-08-17T12:50:38.266Z,27.30
2018-08-17T12:53:05.756Z,27.20
2018-08-17T12:55:33.283Z,26.60
2018-08-17T12:58:00.832Z,26.50
2018-08-17T13:00:28.290Z,26.50
2018-08-17T13:02:55.941Z,26.60
2018-08-17T13:05:23.554Z,26.60
2018-08-17T13:07:51.110Z,26.30
2018-08-17T13:10:18.630Z,26.80
2018-08-17T13:12:53.048Z,26.50
2018-08-17T13:15:20.520Z,26.70
2018-08-17T13:17:48.121Z,26.90
2018-08-17T13:20:15.806Z,27.00
2018-08-17T13:22:43.382Z,27.00
2018-08-17T13:25:10.940Z,27.20
2018-08-17T13:27:38.854Z,26.40
2018-08-17T13:30:08.775Z,26.70
2018-08-17T13:32:36.327Z,26.80
2018-08-17T13:35:03.881Z,27.20
2018-08-17T13:37:31.481Z,26.00
2018-08-17T13:39:59.168Z,26.00
2018-08-17T13:42:27.086Z,25.80
2018-08-17T13:44:55.414Z,26.50
2018-08-17T13:47:23.851Z,26.70
2018-08-17T13:49:52.933Z,26.70
2018-08-17T13:52:20.571Z,26.60
2018-08-17T13:54:48.157Z,25.60
2018-08-17T13:57:15.771Z,25.50
2018-08-17T13:59:43.505Z,26.30
2018-08-17T14:02:13.289Z,25.80
2018-08-17T14:04:40.809Z,26.30
2018-08-17T14:07:08.327Z,27.40
2018-08-17T14:09:36.091Z,26.20
2018-08-17T14:12:03.587Z,26.40
2018-08-17T14:14:31.381Z,26.70
2018-08-17T14:16:58.937Z,26.80
2018-08-17T14:19:26.519Z,26.50
2018-08-17T14:21:54.205Z,26.30
2018-08-17T14:24:21.833Z,26.80
2018-08-17T14:26:49.485Z,26.90
2018-08-17T14:29:17.340Z,25.50
2018-08-17T14:31:44.895Z,25.90
2018-08-17T14:34:12.450Z,26.50
2018-08-17T14:36:39.967Z,26.60
2018-08-17T14:39:07.611Z,26.50
2018-08-17T14:41:45.271Z,26.40
2018-08-17T14:44:12.773Z,26.50
2018-08-17T14:46:40.255Z,26.50
2018-08-17T14:49:07.766Z,27.00
2018-08-17T14:51:36.147Z,26.80
2018-08-17T14:54:03.724Z,26.40
2018-08-17T14:56:31.300Z,26.20
2018-08-17T14:58:58.761Z,26.60
2018-08-17T15:01:26.263Z,26.60
2018-08-17T15:03:53.792Z,26.70
2018-08-17T15:06:22.239Z,26.60
2018-08-17T15:08:49.717Z,26.10
2018-08-17T15:11:17.457Z,26.40
2018-08-17T15:13:45.786Z,26.10
2018-08-17T15:16:13.504Z,26.60
2018-08-17T15:18:41.323Z,25.40
2018-08-17T15:21:09.787Z,25.70
2018-08-17T15:23:37.351Z,26.60
2018-08-17T15:26:05.227Z,26.20
2018-08-17T15:28:32.770Z,25.70
2018-08-17T15:31:00.459Z,25.00
2018-08-17T15:33:28.160Z,26.50
2018-08-17T15:35:55.658Z,26.60
2018-08-17T15:38:23.206Z,26.40
2018-08-17T15:40:50.787Z,27.20
2018-08-17T15:43:19.374Z,27.20
2018-08-17T15:45:48.617Z,27.40
2018-08-17T15:48:16.615Z,25.90
2018-08-17T15:50:44.710Z,26.70
2018-08-17T15:53:12.204Z,27.30
2018-08-17T15:55:39.706Z,26.90
2018-08-17T15:58:07.529Z,27.00
2018-08-17T16:00:35.118Z,26.40
2018-08-17T16:03:02.708Z,26.30
2018-08-17T16:05:30.252Z,26.40
2018-08-17T16:07:57.819Z,26.50
2018-08-17T16:10:25.348Z,26.70
2018-08-17T16:12:52.987Z,26.60
2018-08-17T16:15:20.507Z,26.40
2018-08-17T16:17:48.107Z,26.20
2018-08-17T16:20:15.637Z,26.50
2018-08-17T16:22:43.666Z,26.30
2018-08-17T16:25:12.148Z,25.80
2018-08-17T16:27:40.582Z,25.80
2018-08-17T16:30:10.129Z,25.90
2018-08-17T16:32:37.734Z,26.10
2018-08-17T16:35:05.541Z,26.60
2018-08-17T16:37:33.183Z,26.30
2018-08-17T16:40:00.597Z,26.10
2018-08-17T16:42:35.011Z,26.60
2018-08-17T16:45:03.445Z,25.10
2018-08-17T16:47:31.259Z,26.80
2018-08-17T16:49:58.746Z,26.60
2018-08-17T16:52:26.267Z,26.70
2018-08-17T16:54:54.177Z,27.00
2018-08-17T16:57:21.695Z,26.60
2018-08-17T16:59:49.348Z,26.90
2018-08-17T17:02:16.816Z,26.60
2018-08-17T17:04:44.410Z,27.10
2018-08-17T17:07:11.959Z,27.00
2018-08-17T17:09:39.499Z,27.10
2018-08-17T17:12:15.860Z,27.30
2018-08-17T17:14:44.093Z,27.60
2018-08-17T17:17:19.262Z,27.90
2018-08-17T17:19:46.728Z,28.00
2018-08-17T17:22:14.300Z,28.10
2018-08-17T17:24:41.865Z,28.20
2018-08-17T17:27:09.170Z,28.30
2018-08-17T17:29:37.288Z,28.50
2018-08-17T17:32:05.431Z,28.60
2018-08-17T17:34:32.991Z,28.10
2018-08-17T17:37:00.600Z,28.20
2018-08-17T17:39:28.133Z,28.40
2018-08-17T17:41:55.653Z,28.70
2018-08-17T17:44:23.174Z,28.90
2018-08-17T17:46:50.745Z,29.00
2018-08-17T17:49:18.327Z,28.90
2018-08-17T17:51:46.832Z,28.80
2018-08-17T17:54:20.080Z,29.00
2018-08-17T17:56:56.054Z,29.00
2018-08-17T17:59:23.585Z,28.10
2018-08-17T18:01:51.094Z,29.00
2018-08-17T18:04:18.598Z,29.20
2018-08-17T18:06:46.141Z,29.30
2018-08-17T18:09:13.701Z,29.80
2018-08-17T18:11:41.221Z,30.20
2018-08-17T18:14:08.746Z,29.80
2018-08-17T18:16:36.237Z,29.80
2018-08-17T18:19:03.838Z,30.00
2018-08-17T18:21:32.665Z,30.00
2018-08-17T18:24:05.737Z,29.90
2018-08-17T18:26:34.086Z,30.00
2018-08-17T18:29:01.656Z,30.10
2018-08-17T18:31:29.148Z,30.10
2018-08-17T18:33:56.824Z,30.30
2018-08-17T18:36:24.348Z,30.20
2018-08-17T18:38:51.982Z,29.90
2018-08-17T18:41:19.510Z,30.50
2018-08-17T18:43:47.407Z,30.40
2018-08-17T18:46:15.135Z,30.80
2018-08-17T18:48:42.616Z,30.80
2018-08-17T18:51:10.571Z,30.90
2018-08-17T18:53:38.185Z,31.30
2018-08-17T18:56:05.770Z,31.40
2018-08-17T18:58:33.409Z,31.60
2018-08-17T19:01:00.972Z,31.40
2018-08-17T19:03:28.590Z,31.50
2018-08-17T19:05:56.106Z,31.80
2018-08-17T19:08:23.671Z,32.00
2018-08-17T19:10:51.256Z,32.00
2018-08-17T19:13:18.825Z,32.10
2018-08-17T19:15:50.952Z,32.30
2018-08-17T19:18:18.514Z,32.50
2018-08-17T19:20:46.073Z,32.50
2018-08-17T19:23:13.721Z,32.70
2018-08-17T19:25:41.363Z,32.90
2018-08-17T19:28:08.889Z,33.10
2018-08-17T19:30:38.526Z,33.10
2018-08-17T19:33:08.308Z,33.50
2018-08-17T19:35:35.887Z,33.70
2018-08-17T19:38:03.511Z,33.50
2018-08-17T19:40:31.065Z,33.50
2018-08-17T19:42:58.611Z,32.60
2018-08-17T19:45:26.232Z,33.70
2018-08-17T19:47:53.817Z,33.80
2018-08-17T19:50:21.507Z,33.90
2018-08-17T19:52:49.081Z,34.20
2018-08-17T19:55:16.788Z,34.70
2018-08-17T19:57:44.380Z,34.50
2018-08-17T20:00:12.729Z,34.60
2018-08-17T20:02:40.463Z,35.10
2018-08-17T20:05:08.293Z,34.90
2018-08-17T20:07:36.295Z,35.30
2018-08-17T20:10:04.161Z,35.40
2018-08-17T20:12:31.904Z,35.50
2018-08-17T20:14:59.548Z,35.20
2018-08-17T20:17:27.061Z,35.30
2018-08-17T20:19:54.744Z,35.50
2018-08-17T20:22:23.428Z,35.60
2018-08-17T20:24:51.713Z,36.10
2018-08-17T20:27:19.922Z,35.80
2018-08-17T20:29:47.694Z,35.70
2018-08-17T20:32:15.479Z,36.20
2018-08-17T20:34:45.996Z,36.30
2018-08-17T20:37:14.733Z,36.30
2018-08-17T20:39:43.454Z,36.30
2018-08-17T20:42:11.494Z,36.40
2018-08-17T20:44:39.677Z,36.60
2018-08-17T20:47:08.170Z,36.80
2018-08-17T20:49:35.786Z,37.20
2018-08-17T20:52:04.085Z,37.40
2018-08-17T20:54:32.208Z,37.60
2018-08-17T20:57:00.436Z,36.80
2018-08-17T20:59:28.112Z,36.10
2018-08-17T21:01:55.850Z,37.60
2018-08-17T21:04:23.477Z,37.60
2018-08-17T21:06:51.028Z,37.60
2018-08-17T21:09:18.904Z,38.40
2018-08-17T21:11:46.414Z,37.60
2018-08-17T21:14:13.944Z,36.10
2018-08-17T21:16:41.566Z,37.50
2018-08-17T21:19:09.144Z,37.50
2018-08-17T21:21:36.728Z,37.60
2018-08-17T21:24:04.302Z,37.30
2018-08-17T21:26:33.098Z,36.30
2018-08-17T21:29:01.814Z,37.40
2018-08-17T21:31:29.390Z,38.10
2018-08-17T21:33:56.995Z,38.20
2018-08-17T21:36:24.544Z,38.40
2018-08-17T21:39:09.505Z,38.20
2018-08-17T21:41:37.783Z,38.10
2018-08-17T21:44:07.309Z,37.50
2018-08-17T21:46:35.767Z,38.40
2018-08-17T21:49:03.398Z,38.70
2018-08-17T21:51:33.120Z,38.50
2018-08-17T21:54:01.175Z,38.80
2018-08-17T21:56:28.873Z,38.80
2018-08-17T21:58:56.581Z,39.00
2018-08-17T22:01:24.150Z,37.90
2018-08-17T22:03:51.706Z,39.20
2018-08-17T22:06:19.344Z,39.10
2018-08-17T22:08:47.001Z,39.30
2018-08-17T22:11:23.733Z,39.30
2018-08-17T22:13:51.273Z,39.60
2018-08-17T22:16:18.897Z,37.60
2018-08-17T22:18:46.696Z,39.40
2018-08-17T22:21:14.155Z,39.60
2018-08-17T22:23:41.766Z,39.80
2018-08-17T22:26:09.491Z,39.70
2018-08-17T22:28:37.125Z,39.70
2018-08-17T22:31:04.928Z,40.00
2018-08-17T22:33:32.694Z,39.90
2018-08-17T22:36:00.409Z,40.00
2018-08-17T22:38:31.455Z,39.90
2018-08-17T22:40:59.096Z,40.60
2018-08-17T22:43:26.583Z,40.50
2018-08-17T22:45:54.095Z,40.50
2018-08-17T22:48:21.784Z,39.60
2018-08-17T22:50:49.280Z,40.60
2018-08-17T22:53:16.840Z,40.50
2018-08-17T22:55:44.437Z,40.50
2018-08-17T22:58:12.731Z,40.60
2018-08-17T23:00:40.369Z,40.50
2018-08-17T23:03:07.990Z,40.60
2018-08-17T23:05:35.815Z,40.30
2018-08-17T23:08:03.587Z,40.90
2018-08-17T23:10:31.267Z,40.90
2018-08-17T23:12:58.823Z,40.50
2018-08-17T23:15:26.502Z,40.70
2018-08-17T23:17:56.214Z,41.00
2018-08-17T23:20:29.500Z,40.90
2018-08-17T23:22:58.284Z,41.10
2018-08-17T23:25:25.854Z,41.20
2018-08-17T23:27:53.709Z,41.10
2018-08-17T23:30:21.229Z,41.20
2018-08-17T23:32:48.882Z,41.40
2018-08-17T23:35:23.207Z,41.10
2018-08-17T23:37:50.774Z,41.80
2018-08-17T23:40:18.364Z,41.90
2018-08-17T23:42:45.935Z,42.30
2018-08-17T23:45:15.888Z,42.30
2018-08-17T23:47:43.518Z,42.40
2018-08-17T23:50:12.602Z,42.40
2018-08-17T23:52:40.082Z,42.60
2018-08-17T23:55:09.696Z,42.50
2018-08-17T23:57:37.227Z,42.70
